Time;durP1;ratioP1;P1;durP2;ratioP2;P2;SDS_P1;SDS_P2;PMS_P1;PMS_P2;Temp;Humidity;BMP_temperature;BMP_pressure;BME280_temperature;BME280_humidity;BME280_pressure;Samples;Min_cycle;Max_cycle;Signal;HPM_P1;HPM_P2
2022/01/16 00:05:03;;;;;;;23.42;8.23;;;;;;;;;;5051531;28;20132;-68
2022/01/16 00:07:32;;;;;;;25.35;8.90;;;;;;;;;;5049137;28;20136;-68
2022/01/16 00:10:02;;;;;;;22.77;8.57;;;;;;;;;;5060052;28;20041;-69
2022/01/16 00:12:30;;;;;;;28.38;8.30;;;;;;;;;;5050319;28;20045;-68
2022/01/16 00:14:58;;;;;;;23.30;7.07;;;;;;;;;;5059902;28;20456;-68
2022/01/16 00:17:28;;;;;;;29.20;8.45;;;;;;;;;;5048725;28;20087;-68
2022/01/16 00:19:56;;;;;;;24.80;8.27;;;;;;;;;;5054654;28;20045;-68
2022/01/16 00:22:28;;;;;;;22.92;8.23;;;;;;;;;;5048447;28;20358;-68
2022/01/16 00:24:56;;;;;;;26.10;8.48;;;;;;;;;;5053621;28;20838;-68
2022/01/16 00:27:26;;;;;;;20.77;7.70;;;;;;;;;;5056075;28;20457;-68
2022/01/16 00:29:54;;;;;;;22.27;8.23;;;;;;;;;;5041776;28;20132;-68
2022/01/16 00:32:23;;;;;;;31.30;9.05;;;;;;;;;;5050385;28;20286;-68
2022/01/16 00:34:51;;;;;;;30.70;9.38;;;;;;;;;;5055608;28;20132;-68
2022/01/16 00:37:19;;;;;;;28.45;8.55;;;;;;;;;;5046249;28;20135;-68
2022/01/16 00:39:47;;;;;;;26.73;8.43;;;;;;;;;;5064478;28;20041;-68
2022/01/16 00:42:16;;;;;;;27.25;9.18;;;;;;;;;;5050245;28;20132;-68
2022/01/16 00:44:45;;;;;;;28.63;8.88;;;;;;;;;;5061231;28;20044;-68
2022/01/16 00:47:14;;;;;;;23.35;8.32;;;;;;;;;;5061894;28;20052;-68
2022/01/16 00:49:42;;;;;;;27.77;9.13;;;;;;;;;;5062449;28;20131;-68
2022/01/16 00:52:11;;;;;;;23.60;8.07;;;;;;;;;;5061053;28;20075;-68
2022/01/16 00:54:40;;;;;;;27.00;9.38;;;;;;;;;;5060373;28;20037;-68
2022/01/16 00:57:08;;;;;;;26.02;9.70;;;;;;;;;;5055948;28;20127;-68
2022/01/16 00:59:36;;;;;;;29.70;8.88;;;;;;;;;;5052219;28;20140;-68
2022/01/16 01:02:06;;;;;;;25.13;8.85;;;;;;;;;;5055447;28;20095;-68
2022/01/16 01:04:34;;;;;;;30.08;9.32;;;;;;;;;;5063155;28;20080;-68
2022/01/16 01:07:03;;;;;;;32.10;10.65;;;;;;;;;;5051840;28;20116;-68
2022/01/16 01:09:31;;;;;;;33.28;10.55;;;;;;;;;;5050427;28;20084;-68
2022/01/16 01:12:02;;;;;;;30.67;9.35;;;;;;;;;;5050195;28;20080;-68
2022/01/16 01:14:42;;;;;;;26.13;8.52;;;;;;;;;;5051008;28;20037;-68
2022/01/16 01:17:20;;;;;;;28.85;9.45;;;;;;;;;;5047162;28;20049;-68
2022/01/16 01:19:49;;;;;;;26.30;8.82;;;;;;;;;;5055359;28;20043;-68
2022/01/16 01:22:17;;;;;;;28.27;9.60;;;;;;;;;;5048116;28;20073;-68
2022/01/16 01:24:45;;;;;;;35.10;10.65;;;;;;;;;;5054270;28;20048;-68
2022/01/16 01:27:21;;;;;;;30.85;10.18;;;;;;;;;;5037200;28;20051;-68
2022/01/16 01:29:57;;;;;;;29.92;9.80;;;;;;;;;;5034923;28;20483;-68
2022/01/16 01:32:26;;;;;;;25.50;9.35;;;;;;;;;;5050786;28;20512;-68
2022/01/16 01:34:55;;;;;;;31.00;9.38;;;;;;;;;;5053294;28;20080;-68
2022/01/16 01:37:23;;;;;;;27.23;10.18;;;;;;;;;;5054584;28;20131;-68
2022/01/16 01:39:52;;;;;;;24.80;8.80;;;;;;;;;;5061553;28;20141;-68
2022/01/16 01:42:20;;;;;;;29.63;9.57;;;;;;;;;;5050101;28;20052;-68
2022/01/16 01:53:08;;;;;;;28.02;10.60;;;;;;;;;;5055224;28;20059;-68
2022/01/16 01:55:37;;;;;;;31.33;10.35;;;;;;;;;;5054024;28;20052;-68
2022/01/16 01:58:05;;;;;;;29.00;9.73;;;;;;;;;;5052003;28;20508;-68
2022/01/16 02:00:33;;;;;;;30.42;10.15;;;;;;;;;;5049317;28;20485;-68
2022/01/16 02:03:14;;;;;;;25.98;9.15;;;;;;;;;;5057197;28;20052;-68
2022/01/16 02:05:42;;;;;;;31.58;10.10;;;;;;;;;;5041718;28;20123;-68
2022/01/16 02:08:11;;;;;;;26.15;8.45;;;;;;;;;;5058908;28;20079;-68
2022/01/16 02:10:40;;;;;;;30.95;10.18;;;;;;;;;;5061246;28;20064;-68
2022/01/16 02:13:16;;;;;;;28.85;10.25;;;;;;;;;;5067309;28;21596;-68
2022/01/16 02:35:34;;;;;;;31.05;9.43;;;;;;;;;;5020494;28;20512;-68
2022/01/16 02:38:05;;;;;;;31.60;9.05;;;;;;;;;;5049899;28;20523;-68
2022/01/16 02:40:36;;;;;;;23.55;8.65;;;;;;;;;;5047661;28;20049;-68
2022/01/16 02:43:05;;;;;;;26.17;8.52;;;;;;;;;;5059022;28;20044;-68
2022/01/16 02:45:37;;;;;;;27.77;8.63;;;;;;;;;;5049835;28;20069;-68
2022/01/16 02:48:06;;;;;;;25.05;8.13;;;;;;;;;;5053350;28;20060;-68
2022/01/16 02:50:35;;;;;;;23.67;7.35;;;;;;;;;;5048078;28;20080;-68
2022/01/16 02:53:08;;;;;;;21.45;8.30;;;;;;;;;;5054124;28;20052;-68
2022/01/16 02:55:40;;;;;;;26.58;8.73;;;;;;;;;;5060310;28;20503;-68
2022/01/16 02:58:09;;;;;;;21.38;7.88;;;;;;;;;;5050852;28;20047;-68
2022/01/16 03:00:37;;;;;;;23.13;7.78;;;;;;;;;;5051640;28;20072;-68
2022/01/16 03:03:06;;;;;;;24.65;8.40;;;;;;;;;;5040828;28;20382;-68
2022/01/16 03:05:35;;;;;;;23.58;8.60;;;;;;;;;;5042815;28;20135;-68
2022/01/16 03:08:04;;;;;;;26.08;8.73;;;;;;;;;;5044496;28;20132;-68
2022/01/16 03:10:51;;;;;;;20.65;7.75;;;;;;;;;;5044993;28;20049;-68
2022/01/16 03:13:22;;;;;;;20.88;8.82;;;;;;;;;;5044474;28;20120;-68
2022/01/16 03:15:52;;;;;;;28.15;9.13;;;;;;;;;;5046938;28;20076;-68
2022/01/16 03:23:59;;;;;;;30.33;8.68;;;;;;;;;;5052714;28;20134;-68
2022/01/16 03:26:28;;;;;;;25.20;10.02;;;;;;;;;;5062473;28;20144;-68
2022/01/16 03:28:57;;;;;;;24.70;9.23;;;;;;;;;;5051897;28;20076;-68
2022/01/16 03:31:26;;;;;;;23.77;7.95;;;;;;;;;;5054168;28;20087;-68
2022/01/16 03:33:54;;;;;;;25.67;9.30;;;;;;;;;;5059632;28;20079;-68
2022/01/16 03:36:23;;;;;;;28.27;8.35;;;;;;;;;;5063405;28;20554;-68
2022/01/16 03:38:51;;;;;;;23.35;8.32;;;;;;;;;;5053304;28;20591;-68
2022/01/16 03:41:19;;;;;;;25.83;8.63;;;;;;;;;;5060279;28;20500;-68
2022/01/16 03:43:49;;;;;;;26.05;8.75;;;;;;;;;;5057080;28;20057;-68
2022/01/16 03:46:18;;;;;;;27.77;9.05;;;;;;;;;;5049370;28;20055;-68
2022/01/16 03:48:47;;;;;;;22.27;7.28;;;;;;;;;;5053236;28;20141;-68
2022/01/16 03:51:15;;;;;;;26.13;9.32;;;;;;;;;;5051855;28;20140;-68
2022/01/16 03:53:44;;;;;;;27.77;8.88;;;;;;;;;;5067978;28;20139;-68
2022/01/16 03:56:12;;;;;;;26.38;9.48;;;;;;;;;;5052442;28;20132;-68
2022/01/16 03:58:41;;;;;;;27.13;8.55;;;;;;;;;;5055376;28;20514;-68
2022/01/16 04:01:09;;;;;;;24.90;8.15;;;;;;;;;;5038264;28;20144;-68
2022/01/16 04:03:39;;;;;;;23.42;8.10;;;;;;;;;;5025846;28;20592;-68
2022/01/16 04:06:10;;;;;;;22.48;8.68;;;;;;;;;;5036310;28;20533;-68
2022/01/16 04:08:39;;;;;;;29.27;9.13;;;;;;;;;;5042155;28;20049;-68
2022/01/16 04:11:13;;;;;;;22.38;8.40;;;;;;;;;;5037571;28;20077;-68
2022/01/16 04:13:49;;;;;;;24.40;8.18;;;;;;;;;;5033242;28;20120;-68
2022/01/16 04:16:18;;;;;;;26.08;9.07;;;;;;;;;;5040118;28;20100;-68
2022/01/16 04:18:51;;;;;;;22.80;8.38;;;;;;;;;;5038163;28;20408;-68
2022/01/16 04:21:19;;;;;;;27.02;8.65;;;;;;;;;;5039631;28;20080;-68
2022/01/16 04:23:48;;;;;;;31.70;9.07;;;;;;;;;;5032952;28;20125;-68
2022/01/16 04:26:17;;;;;;;29.77;8.15;;;;;;;;;;5045194;28;20480;-68
2022/01/16 04:28:46;;;;;;;27.02;8.68;;;;;;;;;;5033735;28;20529;-68
2022/01/16 04:31:15;;;;;;;25.73;8.85;;;;;;;;;;5038392;28;20593;-68
2022/01/16 04:33:44;;;;;;;33.05;8.73;;;;;;;;;;5047763;28;20056;-68
2022/01/16 04:36:14;;;;;;;28.20;8.55;;;;;;;;;;5050540;28;20047;-68
2022/01/16 04:38:45;;;;;;;28.25;9.57;;;;;;;;;;5041244;28;20567;-68
2022/01/16 04:44:00;;;;;;;26.15;8.32;;;;;;;;;;5040832;28;20048;-68
2022/01/16 04:46:29;;;;;;;26.20;9.02;;;;;;;;;;5037576;28;20115;-68
2022/01/16 04:48:59;;;;;;;30.08;9.63;;;;;;;;;;5045008;28;20049;-68
2022/01/16 04:51:29;;;;;;;27.67;10.18;;;;;;;;;;5033855;28;20057;-68
2022/01/16 04:53:57;;;;;;;28.58;9.15;;;;;;;;;;5031959;28;20133;-68
2022/01/16 04:56:26;;;;;;;25.70;8.60;;;;;;;;;;5019506;28;20179;-68
2022/01/16 04:58:54;;;;;;;26.13;10.13;;;;;;;;;;5032802;28;20571;-68
2022/01/16 05:01:23;;;;;;;24.20;8.80;;;;;;;;;;5018175;28;20073;-68
2022/01/16 05:03:51;;;;;;;26.55;9.90;;;;;;;;;;5042247;28;20120;-68
2022/01/16 05:06:20;;;;;;;26.73;9.52;;;;;;;;;;5030068;28;20535;-68
2022/01/16 05:08:50;;;;;;;27.10;9.18;;;;;;;;;;5026613;28;20045;-68
2022/01/16 05:11:24;;;;;;;29.35;10.70;;;;;;;;;;5040798;28;20057;-68
2022/01/16 05:16:39;;;;;;;29.02;9.82;;;;;;;;;;5032083;28;20338;-68
2022/01/16 05:19:09;;;;;;;32.15;11.40;;;;;;;;;;5018159;28;20055;-68
2022/01/16 05:21:38;;;;;;;28.48;11.07;;;;;;;;;;5030480;28;20088;-68
2022/01/16 05:24:09;;;;;;;23.10;9.23;;;;;;;;;;5039121;28;20502;-68
2022/01/16 05:26:38;;;;;;;24.88;9.23;;;;;;;;;;5032309;28;20394;-68
2022/01/16 05:29:06;;;;;;;25.73;9.95;;;;;;;;;;5037165;28;20454;-68
2022/01/16 05:31:34;;;;;;;25.20;10.23;;;;;;;;;;5010744;28;20050;-68
2022/01/16 05:34:04;;;;;;;24.77;9.65;;;;;;;;;;5041841;28;20057;-68
2022/01/16 05:36:32;;;;;;;33.25;12.60;;;;;;;;;;5019919;28;20052;-68
2022/01/16 05:39:01;;;;;;;28.05;11.63;;;;;;;;;;5029998;28;20069;-68
2022/01/16 05:41:30;;;;;;;25.73;10.80;;;;;;;;;;5022101;28;20703;-68
2022/01/16 05:43:58;;;;;;;31.20;10.55;;;;;;;;;;5039011;28;20171;-68
2022/01/16 05:46:28;;;;;;;31.60;10.75;;;;;;;;;;5034561;28;20095;-68
2022/01/16 05:48:56;;;;;;;31.50;11.80;;;;;;;;;;5038486;28;20102;-68
2022/01/16 05:51:24;;;;;;;28.55;10.32;;;;;;;;;;5032633;28;20474;-68
2022/01/16 05:53:55;;;;;;;31.27;11.48;;;;;;;;;;5044639;28;20128;-68
2022/01/16 05:56:26;;;;;;;27.48;10.85;;;;;;;;;;5043197;28;20049;-68
2022/01/16 05:58:56;;;;;;;31.20;11.33;;;;;;;;;;4997474;28;1067364;-68
2022/01/16 06:01:24;;;;;;;29.25;11.00;;;;;;;;;;5053681;28;20132;-68
2022/01/16 06:03:52;;;;;;;25.10;11.90;;;;;;;;;;5047509;28;20055;-68
2022/01/16 06:06:24;;;;;;;29.83;11.07;;;;;;;;;;5042989;28;20069;-68
2022/01/16 06:08:52;;;;;;;27.65;11.60;;;;;;;;;;5061370;28;20139;-68
2022/01/16 06:11:26;;;;;;;28.25;11.77;;;;;;;;;;5065337;28;20048;-68
2022/01/16 06:13:55;;;;;;;28.83;12.30;;;;;;;;;;5071281;28;20095;-68
2022/01/16 06:16:26;;;;;;;28.65;11.75;;;;;;;;;;5065090;28;20476;-68
2022/01/16 06:18:55;;;;;;;31.73;12.15;;;;;;;;;;5065022;28;20072;-68
2022/01/16 06:21:23;;;;;;;32.22;10.88;;;;;;;;;;5055104;28;20474;-68
2022/01/16 06:23:51;;;;;;;30.15;12.80;;;;;;;;;;5064967;28;20156;-68
2022/01/16 06:26:25;;;;;;;30.65;11.70;;;;;;;;;;5059650;28;20079;-68
2022/01/16 06:28:55;;;;;;;27.23;12.15;;;;;;;;;;5053457;28;20037;-68
2022/01/16 06:31:23;;;;;;;27.10;12.15;;;;;;;;;;5050303;28;20118;-68
2022/01/16 06:33:52;;;;;;;33.60;13.25;;;;;;;;;;5050002;28;20400;-68
2022/01/16 06:36:20;;;;;;;32.05;12.80;;;;;;;;;;5060527;28;20059;-68
2022/01/16 06:38:48;;;;;;;29.60;12.43;;;;;;;;;;5063702;28;20049;-68
2022/01/16 06:41:25;;;;;;;37.20;14.35;;;;;;;;;;5049670;28;20055;-68
2022/01/16 06:43:53;;;;;;;31.67;12.32;;;;;;;;;;5063323;28;20136;-68
2022/01/16 06:46:35;;;;;;;33.05;13.50;;;;;;;;;;5062364;28;20098;-68
2022/01/16 06:49:04;;;;;;;29.45;12.20;;;;;;;;;;5046966;28;20084;-68
2022/01/16 06:51:32;;;;;;;33.38;14.00;;;;;;;;;;5052250;28;20459;-68
2022/01/16 06:54:02;;;;;;;34.25;14.05;;;;;;;;;;5070308;28;20132;-68
2022/01/16 06:56:30;;;;;;;32.13;13.38;;;;;;;;;;5060604;28;20572;-69
2022/01/16 06:58:59;;;;;;;29.35;13.18;;;;;;;;;;5056221;28;20480;-66
2022/01/16 07:01:49;;;;;;;31.55;13.18;;;;;;;;;;5062463;28;20064;-66
2022/01/16 07:04:22;;;;;;;33.50;14.40;;;;;;;;;;1472216;28;10023363;-67
2022/01/16 07:06:50;;;;;;;25.48;12.13;;;;;;;;;;3996206;28;10001727;-66
2022/01/16 07:09:34;;;;;;;25.00;11.08;;;;;;;;;;824046;28;10003327;-67
2022/01/16 07:12:03;;;;;;;40.30;12.68;;;;;;;;;;5040114;28;20305;-66
2022/01/16 07:14:31;;;;;;;31.00;12.70;;;;;;;;;;5049101;28;20049;-66
2022/01/16 07:17:01;;;;;;;34.03;13.40;;;;;;;;;;5062048;28;20139;-66
2022/01/16 07:19:29;;;;;;;39.45;14.32;;;;;;;;;;5039444;28;20076;-66
2022/01/16 07:21:57;;;;;;;34.35;13.85;;;;;;;;;;5057359;28;20391;-66
2022/01/16 07:24:25;;;;;;;30.73;13.50;;;;;;;;;;5046099;28;20373;-67
2022/01/16 07:26:54;;;;;;;29.52;11.52;;;;;;;;;;5057279;28;20072;-67
2022/01/16 07:29:22;;;;;;;38.38;13.65;;;;;;;;;;5048291;28;20080;-67
2022/01/16 07:31:51;;;;;;;35.63;13.63;;;;;;;;;;5052410;28;20051;-67
2022/01/16 07:34:21;;;;;;;31.05;12.98;;;;;;;;;;5055815;28;20073;-67
2022/01/16 07:36:49;;;;;;;37.53;15.38;;;;;;;;;;5047195;28;20095;-66
2022/01/16 07:39:17;;;;;;;34.75;14.70;;;;;;;;;;5063372;28;20471;-67
2022/01/16 07:41:45;;;;;;;33.65;13.60;;;;;;;;;;5057705;28;20123;-67
2022/01/16 07:44:14;;;;;;;34.92;14.20;;;;;;;;;;5043898;28;20576;-67
2022/01/16 07:46:42;;;;;;;31.75;13.68;;;;;;;;;;5066657;28;20158;-67
2022/01/16 07:49:10;;;;;;;33.97;12.82;;;;;;;;;;5038534;28;20066;-67
2022/01/16 07:51:40;;;;;;;36.90;14.50;;;;;;;;;;5047182;28;20048;-67
2022/01/16 07:54:08;;;;;;;33.65;13.00;;;;;;;;;;5045532;28;20128;-67
2022/01/16 07:56:36;;;;;;;32.55;13.07;;;;;;;;;;5051394;28;20045;-67
2022/01/16 07:59:05;;;;;;;40.53;14.07;;;;;;;;;;5042395;28;20136;-67
2022/01/16 08:01:33;;;;;;;33.15;13.25;;;;;;;;;;5056082;28;20136;-67
2022/01/16 08:04:02;;;;;;;31.13;12.20;;;;;;;;;;5061565;28;20068;-66
2022/01/16 08:06:32;;;;;;;29.00;11.82;;;;;;;;;;5050277;28;20045;-67
2022/01/16 08:09:02;;;;;;;36.05;14.55;;;;;;;;;;5049934;28;20144;-68
2022/01/16 08:11:42;;;;;;;27.60;13.27;;;;;;;;;;5055251;28;20135;-68
2022/01/16 08:14:11;;;;;;;30.65;13.82;;;;;;;;;;5051454;28;20094;-68
2022/01/16 08:16:39;;;;;;;35.40;12.52;;;;;;;;;;5057959;28;20328;-68
2022/01/16 08:19:07;;;;;;;36.03;14.07;;;;;;;;;;5044401;28;20045;-68
2022/01/16 08:21:36;;;;;;;35.13;13.95;;;;;;;;;;5031086;28;20124;-68
2022/01/16 08:24:06;;;;;;;37.45;14.00;;;;;;;;;;5057278;28;20057;-68
2022/01/16 08:26:47;;;;;;;32.90;12.90;;;;;;;;;;2428961;28;10023497;-68
2022/01/16 08:29:15;;;;;;;37.40;13.82;;;;;;;;;;3668937;28;10001592;-68
2022/01/16 08:31:43;;;;;;;35.60;14.48;;;;;;;;;;5055186;28;20485;-68
2022/01/16 08:34:12;;;;;;;34.58;15.00;;;;;;;;;;5064212;28;20048;-67
2022/01/16 08:36:40;;;;;;;32.65;13.13;;;;;;;;;;5065849;28;20076;-68
2022/01/16 08:39:10;;;;;;;33.60;13.75;;;;;;;;;;5060325;28;20044;-68
2022/01/16 08:41:38;;;;;;;34.70;14.02;;;;;;;;;;5037321;28;20045;-67
2022/01/16 08:44:06;;;;;;;33.17;13.68;;;;;;;;;;5065762;28;20068;-67
2022/01/16 08:46:41;;;;;;;37.47;15.00;;;;;;;;;;5064860;28;20087;-68
2022/01/16 08:49:09;;;;;;;33.33;13.85;;;;;;;;;;5039765;28;20374;-67
2022/01/16 08:51:37;;;;;;;39.92;15.15;;;;;;;;;;5053193;28;20075;-68
2022/01/16 08:54:05;;;;;;;29.58;14.02;;;;;;;;;;5061294;28;20071;-68
2022/01/16 08:56:36;;;;;;;36.72;13.68;;;;;;;;;;5066190;28;20473;-68
2022/01/16 08:59:04;;;;;;;35.38;13.70;;;;;;;;;;5050743;28;20056;-68
2022/01/16 09:01:33;;;;;;;32.13;13.73;;;;;;;;;;5063930;28;20071;-67
2022/01/16 09:04:01;;;;;;;34.70;13.77;;;;;;;;;;5049334;28;20164;-67
2022/01/16 09:06:30;;;;;;;33.53;13.15;;;;;;;;;;5049949;28;20095;-67
2022/01/16 09:08:58;;;;;;;37.70;14.15;;;;;;;;;;5056642;28;20083;-67
2022/01/16 09:11:37;;;;;;;31.45;14.00;;;;;;;;;;5056620;28;20422;-67
2022/01/16 09:14:05;;;;;;;31.80;12.20;;;;;;;;;;5052232;28;20143;-67
2022/01/16 09:16:36;;;;;;;33.97;14.32;;;;;;;;;;5052144;28;20449;-68
2022/01/16 09:19:05;;;;;;;26.58;11.57;;;;;;;;;;5060521;28;20045;-67
2022/01/16 09:21:34;;;;;;;38.10;14.63;;;;;;;;;;5052568;28;20520;-68
2022/01/16 09:24:02;;;;;;;35.05;15.43;;;;;;;;;;5054033;28;20049;-68
2022/01/16 09:26:31;;;;;;;34.90;12.85;;;;;;;;;;5056388;28;20479;-67
2022/01/16 09:29:01;;;;;;;38.75;14.20;;;;;;;;;;5058473;28;20056;-67
2022/01/16 09:31:36;;;;;;;44.15;15.65;;;;;;;;;;5065260;28;20056;-68
2022/01/16 09:34:06;;;;;;;39.85;13.48;;;;;;;;;;5066597;28;20075;-67
2022/01/16 09:36:34;;;;;;;40.80;14.23;;;;;;;;;;5053955;28;20052;-67
2022/01/16 09:39:03;;;;;;;31.25;13.23;;;;;;;;;;5058557;28;20049;-67
2022/01/16 09:41:32;;;;;;;38.22;14.38;;;;;;;;;;5042820;28;20056;-67
2022/01/16 09:44:17;;;;;;;23.57;9.83;;;;;;;;;;3511931;28;10021499;-68
2022/01/16 09:46:46;;;;;;;34.97;14.10;;;;;;;;;;2611707;28;10001953;-68
2022/01/16 09:49:15;;;;;;;35.70;12.77;;;;;;;;;;5055953;28;20056;-68
2022/01/16 09:51:56;;;;;;;38.22;15.15;;;;;;;;;;5061530;28;20048;-68
2022/01/16 09:54:25;;;;;;;39.25;14.10;;;;;;;;;;5063379;28;20048;-68
2022/01/16 09:56:55;;;;;;;36.75;14.40;;;;;;;;;;5054765;28;20052;-68
2022/01/16 09:59:25;;;;;;;38.10;13.98;;;;;;;;;;5058440;28;20091;-68
2022/01/16 10:01:54;;;;;;;35.65;13.80;;;;;;;;;;5061756;28;20076;-68
2022/01/16 10:04:32;;;;;;;34.50;12.50;;;;;;;;;;5059685;28;20508;-68
2022/01/16 10:07:02;;;;;;;33.55;13.43;;;;;;;;;;5048635;28;20049;-68
2022/01/16 10:09:31;;;;;;;32.22;12.80;;;;;;;;;;5062400;28;20129;-68
2022/01/16 10:12:13;;;;;;;43.83;13.63;;;;;;;;;;5056682;28;20053;-69
2022/01/16 10:14:49;;;;;;;36.22;13.45;;;;;;;;;;5053894;28;20056;-68
2022/01/16 10:17:20;;;;;;;34.60;12.77;;;;;;;;;;5056689;28;20040;-68
2022/01/16 10:19:59;;;;;;;31.90;12.40;;;;;;;;;;5052918;28;20041;-68
2022/01/16 10:22:38;;;;;;;28.02;11.73;;;;;;;;;;5042581;28;20128;-68
2022/01/16 10:25:07;;;;;;;26.45;10.75;;;;;;;;;;5052033;28;20539;-68
2022/01/16 10:27:37;;;;;;;17.85;7.93;;;;;;;;;;5055952;28;20102;-68
2022/01/16 10:30:08;;;;;;;27.40;10.63;;;;;;;;;;5055964;28;20132;-68
2022/01/16 10:32:38;;;;;;;26.00;10.82;;;;;;;;;;5041140;28;20083;-68
2022/01/16 10:35:11;;;;;;;22.40;9.00;;;;;;;;;;5052850;28;20051;-68
2022/01/16 10:37:42;;;;;;;20.20;8.88;;;;;;;;;;5060855;28;20459;-68
2022/01/16 10:40:12;;;;;;;25.23;9.20;;;;;;;;;;5056881;28;20394;-68
2022/01/16 10:42:40;;;;;;;21.58;8.88;;;;;;;;;;5059288;28;20536;-68
2022/01/16 10:45:12;;;;;;;21.85;9.32;;;;;;;;;;5045087;28;20053;-68
2022/01/16 10:47:41;;;;;;;12.90;6.13;;;;;;;;;;5049637;28;20048;-68
2022/01/16 10:50:15;;;;;;;22.33;8.88;;;;;;;;;;5055700;28;20615;-68
2022/01/16 10:52:58;;;;;;;25.77;8.30;;;;;;;;;;5044558;28;20041;-68
2022/01/16 10:55:38;;;;;;;22.92;8.93;;;;;;;;;;5041392;28;20106;-68
2022/01/16 10:58:08;;;;;;;24.77;9.60;;;;;;;;;;5044709;28;20049;-68
2022/01/16 11:00:40;;;;;;;22.88;7.45;;;;;;;;;;5059959;28;20522;-68
2022/01/16 11:03:10;;;;;;;19.80;8.23;;;;;;;;;;5044815;28;20060;-68
2022/01/16 11:05:40;;;;;;;23.67;8.48;;;;;;;;;;5042555;28;20122;-68
2022/01/16 11:08:15;;;;;;;20.83;8.35;;;;;;;;;;1512363;28;10023266;-68
2022/01/16 11:10:45;;;;;;;19.75;6.70;;;;;;;;;;3999565;28;10001034;-68
2022/01/16 11:13:14;;;;;;;19.73;7.75;;;;;;;;;;5055925;28;20041;-68
2022/01/16 11:15:45;;;;;;;20.60;8.80;;;;;;;;;;5041626;28;20095;-68
2022/01/16 11:18:14;;;;;;;14.50;6.97;;;;;;;;;;5049991;28;20087;-68
2022/01/16 11:20:51;;;;;;;25.13;9.75;;;;;;;;;;5054728;28;20047;-68
2022/01/16 11:23:30;;;;;;;20.25;8.57;;;;;;;;;;5060074;28;20049;-68
2022/01/16 11:26:00;;;;;;;24.50;9.23;;;;;;;;;;5053090;28;20442;-68
2022/01/16 11:28:29;;;;;;;18.70;8.07;;;;;;;;;;5044280;28;21074;-68
2022/01/16 11:31:01;;;;;;;22.17;8.07;;;;;;;;;;5048653;28;20041;-68
2022/01/16 11:33:31;;;;;;;21.20;9.07;;;;;;;;;;5049861;28;20087;-68
2022/01/16 11:36:01;;;;;;;20.88;8.82;;;;;;;;;;5044012;28;20503;-68
2022/01/16 11:38:31;;;;;;;22.60;7.72;;;;;;;;;;5053876;28;20079;-69
2022/01/16 11:41:04;;;;;;;19.95;8.18;;;;;;;;;;5061993;28;20504;-68
2022/01/16 11:43:34;;;;;;;24.15;8.60;;;;;;;;;;5031125;28;21353;-68
2022/01/16 11:46:08;;;;;;;20.35;8.25;;;;;;;;;;5048399;28;20493;-68
2022/01/16 11:48:53;;;;;;;15.32;7.90;;;;;;;;;;5042569;28;20048;-68
2022/01/16 11:51:51;;;;;;;23.02;9.10;;;;;;;;;;5054801;28;20493;-68
2022/01/16 11:54:26;;;;;;;18.75;8.23;;;;;;;;;;5049392;28;20049;-69
2022/01/16 11:56:57;;;;;;;19.63;8.70;;;;;;;;;;5053687;28;20535;-69
2022/01/16 11:59:28;;;;;;;19.50;8.68;;;;;;;;;;5042140;28;20497;-68
2022/01/16 12:02:01;;;;;;;20.58;8.77;;;;;;;;;;4657109;28;10001069;-70
2022/01/16 12:04:48;;;;;;;15.18;6.93;;;;;;;;;;695430;28;10002056;-68
2022/01/16 12:07:46;;;;;;;18.55;8.13;;;;;;;;;;5050142;28;20045;-68
2022/01/16 12:10:35;;;;;;;19.13;8.52;;;;;;;;;;5015199;28;20124;-68
2022/01/16 12:13:04;;;;;;;18.95;7.38;;;;;;;;;;5047826;28;20405;-68
2022/01/16 12:15:33;;;;;;;20.70;8.48;;;;;;;;;;5034206;28;20058;-68
2022/01/16 12:18:03;;;;;;;21.60;8.10;;;;;;;;;;5050032;28;20508;-68
2022/01/16 12:20:32;;;;;;;16.42;7.60;;;;;;;;;;5044600;28;20658;-69
2022/01/16 12:23:03;;;;;;;26.05;8.27;;;;;;;;;;5051674;28;20045;-68
2022/01/16 12:25:54;;;;;;;16.70;7.80;;;;;;;;;;5063217;28;20045;-68
2022/01/16 12:28:25;;;;;;;26.30;9.00;;;;;;;;;;5058081;28;20130;-68
2022/01/16 12:30:58;;;;;;;19.30;8.52;;;;;;;;;;5046152;28;20075;-68
2022/01/16 12:33:30;;;;;;;20.27;8.48;;;;;;;;;;5052866;28;20041;-68
2022/01/16 12:36:00;;;;;;;25.33;8.60;;;;;;;;;;5057063;28;20044;-67
2022/01/16 12:38:30;;;;;;;19.05;7.70;;;;;;;;;;5067723;28;20056;-68
2022/01/16 12:41:02;;;;;;;19.13;7.97;;;;;;;;;;5060413;28;20056;-68
2022/01/16 12:43:52;;;;;;;23.08;7.82;;;;;;;;;;5048350;28;20053;-68
2022/01/16 12:46:27;;;;;;;21.70;8.43;;;;;;;;;;5048081;28;20155;-67
2022/01/16 12:48:58;;;;;;;18.13;7.75;;;;;;;;;;5059698;28;20052;-67
2022/01/16 12:51:34;;;;;;;19.90;8.05;;;;;;;;;;5053395;28;20136;-67
2022/01/16 12:54:04;;;;;;;18.52;7.88;;;;;;;;;;5049443;28;20080;-68
2022/01/16 12:56:35;;;;;;;21.65;7.82;;;;;;;;;;5040695;28;20489;-67
2022/01/16 12:59:11;;;;;;;23.48;9.10;;;;;;;;;;5044886;28;20050;-68
2022/01/16 13:01:44;;;;;;;17.77;7.88;;;;;;;;;;5054613;28;20680;-68
2022/01/16 13:04:22;;;;;;;18.60;8.05;;;;;;;;;;5048498;28;20049;-68
2022/01/16 13:06:51;;;;;;;23.10;8.55;;;;;;;;;;5031751;28;20045;-68
2022/01/16 13:09:20;;;;;;;18.48;7.00;;;;;;;;;;5054029;28;20519;-67
2022/01/16 13:11:49;;;;;;;18.02;7.78;;;;;;;;;;5038667;28;20105;-68
2022/01/16 13:14:19;;;;;;;22.38;9.27;;;;;;;;;;5038492;28;20061;-67
2022/01/16 13:16:49;;;;;;;17.42;8.35;;;;;;;;;;5052081;28;20053;-68
2022/01/16 13:19:19;;;;;;;17.38;7.30;;;;;;;;;;5054684;28;20103;-68
2022/01/16 13:22:11;;;;;;;20.90;8.70;;;;;;;;;;5039448;28;20050;-68
2022/01/16 13:24:43;;;;;;;19.08;7.25;;;;;;;;;;5051357;28;20094;-68
2022/01/16 13:27:15;;;;;;;23.67;8.88;;;;;;;;;;5039768;28;20048;-68
2022/01/16 13:29:44;;;;;;;21.20;7.70;;;;;;;;;;5054300;28;20396;-68
2022/01/16 13:32:14;;;;;;;21.58;8.68;;;;;;;;;;5033191;28;20068;-68
2022/01/16 13:34:47;;;;;;;19.02;7.90;;;;;;;;;;5045319;28;20049;-68
2022/01/16 13:37:18;;;;;;;19.33;7.32;;;;;;;;;;5057288;28;20057;-68
2022/01/16 13:39:49;;;;;;;21.70;8.45;;;;;;;;;;5052516;28;20477;-68
2022/01/16 13:42:23;;;;;;;21.52;9.10;;;;;;;;;;5051016;28;20126;-68
2022/01/16 13:44:52;;;;;;;12.55;6.40;;;;;;;;;;5056409;28;20132;-68
2022/01/16 13:47:23;;;;;;;19.25;8.73;;;;;;;;;;5053065;28;20053;-68
2022/01/16 13:50:13;;;;;;;17.28;7.10;;;;;;;;;;1880724;28;10023818;-69
2022/01/16 13:52:51;;;;;;;17.83;8.00;;;;;;;;;;3988580;28;10000967;-68
2022/01/16 13:55:21;;;;;;;19.38;8.40;;;;;;;;;;5047080;28;20103;-68
2022/01/16 13:57:50;;;;;;;20.40;8.32;;;;;;;;;;5054343;28;20079;-68
2022/01/16 14:00:21;;;;;;;23.10;8.45;;;;;;;;;;5044947;28;20057;-68
2022/01/16 14:02:50;;;;;;;18.73;7.95;;;;;;;;;;5061217;28;20386;-68
2022/01/16 14:05:25;;;;;;;19.98;8.45;;;;;;;;;;5056994;28;20117;-68
2022/01/16 14:07:53;;;;;;;19.10;7.95;;;;;;;;;;5061982;28;20098;-68
2022/01/16 14:10:40;;;;;;;23.58;8.93;;;;;;;;;;5054102;28;20045;-68
2022/01/16 14:13:10;;;;;;;23.50;8.70;;;;;;;;;;5054354;28;20049;-68
2022/01/16 14:15:39;;;;;;;19.98;8.65;;;;;;;;;;5062971;28;20087;-68
2022/01/16 14:18:14;;;;;;;20.90;9.02;;;;;;;;;;5062829;28;20127;-68
2022/01/16 14:20:49;;;;;;;19.70;8.30;;;;;;;;;;5050364;28;20447;-68
2022/01/16 14:23:18;;;;;;;;;;;;;;;;;;5036099;28;20060;-68
2022/01/16 14:25:48;;;;;;;22.13;8.45;;;;;;;;;;5050955;28;19931;-68
2022/01/16 14:28:17;;;;;;;23.20;8.35;;;;;;;;;;5058100;28;20064;-68
2022/01/16 14:30:46;;;;;;;23.02;9.48;;;;;;;;;;5042479;28;20057;-68
2022/01/16 14:33:34;;;;;;;20.38;8.13;;;;;;;;;;5057479;28;20057;-68
2022/01/16 14:36:03;;;;;;;21.30;9.15;;;;;;;;;;5070375;28;20064;-68
2022/01/16 14:38:32;;;;;;;18.70;8.45;;;;;;;;;;5048063;28;20098;-68
2022/01/16 14:41:02;;;;;;;23.60;8.77;;;;;;;;;;5060378;28;20052;-68
2022/01/16 14:43:41;;;;;;;21.98;8.52;;;;;;;;;;5051428;28;20048;-68
2022/01/16 14:46:29;;;;;;;18.85;8.77;;;;;;;;;;5037273;28;20334;-68
2022/01/16 14:48:59;;;;;;;20.35;9.27;;;;;;;;;;5050002;28;20136;-68
2022/01/16 14:51:28;;;;;;;21.85;9.55;;;;;;;;;;5052086;28;20041;-68
2022/01/16 14:54:02;;;;;;;18.52;7.93;;;;;;;;;;5055056;28;20036;-68
2022/01/16 14:56:32;;;;;;;21.00;8.10;;;;;;;;;;5048119;28;20408;-68
2022/01/16 14:59:01;;;;;;;19.85;8.60;;;;;;;;;;5044557;28;20084;-68
2022/01/16 15:01:33;;;;;;;19.17;8.15;;;;;;;;;;5061712;28;20053;-68
2022/01/16 15:04:02;;;;;;;20.17;8.80;;;;;;;;;;5041398;28;20056;-68
2022/01/16 15:06:31;;;;;;;22.20;8.90;;;;;;;;;;5050635;28;20056;-68
2022/01/16 15:09:00;;;;;;;24.00;9.63;;;;;;;;;;5035042;28;20052;-68
2022/01/16 15:11:30;;;;;;;19.80;9.57;;;;;;;;;;5049880;28;20065;-68
2022/01/16 15:14:00;;;;;;;21.52;8.35;;;;;;;;;;5049693;28;20107;-68
2022/01/16 15:16:31;;;;;;;21.35;8.90;;;;;;;;;;5049571;28;20044;-66
2022/01/16 15:19:01;;;;;;;24.23;9.52;;;;;;;;;;5046700;28;20049;-68
2022/01/16 15:21:33;;;;;;;21.95;10.20;;;;;;;;;;5033106;28;20397;-68
2022/01/16 15:24:02;;;;;;;17.13;8.50;;;;;;;;;;5051257;28;20132;-68
2022/01/16 15:26:31;;;;;;;26.60;9.95;;;;;;;;;;5032693;28;20114;-68
2022/01/16 15:29:02;;;;;;;24.48;11.00;;;;;;;;;;5052475;28;20049;-68